Time;durP1;ratioP1;P1;durP2;ratioP2;P2;SDS_P1;SDS_P2;PMS_P1;PMS_P2;Temp;Humidity;BMP_temperature;BMP_pressure;BME280_temperature;BME280_humidity;BME280_pressure;Samples;Min_cycle;Max_cycle;Signal;HPM_P1;HPM_P2
2022/12/15 00:40:58;;;;;;;28.08;25.92;;;;;;;12.30;100.00;98436.88;5062848;28;20057;-66
2022/12/15 00:43:33;;;;;;;26.98;24.75;;;;;;;12.35;99.90;98430.28;5072738;28;20414;-65
2022/12/15 00:48:47;;;;;;;27.23;25.02;;;;;;;12.30;99.78;98422.06;5072946;28;20048;-69
2022/12/15 00:51:14;;;;;;;27.07;24.87;;;;;;;12.31;99.59;98427.34;5072515;28;20048;-69
2022/12/15 01:21:21;;;;;;;24.50;22.63;;;;;;;12.27;99.15;98433.97;5072007;28;20483;-68
2022/12/15 01:23:51;;;;;;;25.90;23.52;;;;;;;12.16;99.00;98433.56;5071608;28;20049;-67
2022/12/15 01:26:18;;;;;;;24.73;22.90;;;;;;;12.06;98.43;98446.00;5052819;28;20056;-68
2022/12/15 01:28:45;;;;;;;26.43;24.67;;;;;;;11.95;97.99;98443.97;5072297;28;20063;-67
2022/12/15 01:31:12;;;;;;;26.13;24.10;;;;;;;11.87;97.91;98437.28;5046337;28;20044;-68
2022/12/15 01:33:41;;;;;;;26.53;24.43;;;;;;;11.81;97.86;98442.22;5071400;28;20048;-67
2022/12/15 01:36:09;;;;;;;26.63;24.80;;;;;;;11.79;97.99;98440.91;5070290;28;20048;-67
2022/12/15 01:38:36;;;;;;;26.87;24.97;;;;;;;11.69;97.79;98432.91;5071758;28;20501;-66
2022/12/15 01:41:09;;;;;;;27.03;24.70;;;;;;;11.70;97.43;98445.75;5070855;28;20055;-66
2022/12/15 01:43:39;;;;;;;57.00;53.80;;;;;;;11.56;97.01;98432.84;5072387;28;20045;-68
2022/12/15 01:46:07;;;;;;;26.40;24.47;;;;;;;11.38;96.36;98440.53;5069327;28;20049;-68
2022/12/15 01:48:40;;;;;;;25.57;23.77;;;;;;;11.24;96.10;98439.94;5053891;28;20052;-69
2022/12/15 01:51:09;;;;;;;25.73;23.77;;;;;;;11.13;96.05;98442.28;5061813;28;20437;-69
2022/12/15 01:54:03;;;;;;;25.67;23.53;;;;;;;11.03;96.26;98442.66;5067731;28;20044;-68
2022/12/15 01:56:34;;;;;;;25.70;23.80;;;;;;;11.10;96.73;98442.13;5060716;28;20057;-70
2022/12/15 01:59:08;;;;;;;23.63;21.90;;;;;;;11.12;96.97;98445.44;5070385;28;20249;-68
2022/12/15 02:01:35;;;;;;;24.67;22.53;;;;;;;11.11;97.04;98443.78;5069507;28;20045;-68
2022/12/15 02:04:02;;;;;;;24.73;22.33;;;;;;;11.14;96.82;98440.31;5067916;28;20095;-66
2022/12/15 02:06:29;;;;;;;25.40;23.23;;;;;;;11.06;97.03;98439.19;5074765;28;20048;-67
2022/12/15 02:08:58;;;;;;;24.53;22.77;;;;;;;11.17;96.84;98447.22;5074836;28;20056;-69
2022/12/15 02:11:34;;;;;;;23.60;21.87;;;;;;;11.14;96.87;98438.38;5075382;28;20044;-69
2022/12/15 02:14:08;;;;;;;22.70;21.10;;;;;;;11.14;96.55;98449.53;5075621;28;20127;-68
2022/12/15 02:16:57;;;;;;;25.60;22.90;;;;;;;11.09;96.02;98449.72;5075414;28;20055;-68
2022/12/15 02:19:26;;;;;;;22.57;21.17;;;;;;;11.08;96.22;98456.47;5075706;28;20052;-68
2022/12/15 02:21:53;;;;;;;23.17;21.58;;;;;;;11.03;96.31;98448.25;5074976;28;20053;-68
2022/12/15 02:24:41;;;;;;;24.30;22.60;;;;;;;10.91;96.12;98454.56;5074991;28;20495;-68
2022/12/15 02:27:46;;;;;;;27.07;23.17;;;;;;;10.88;96.21;98462.78;5058843;28;20045;-69
2022/12/15 02:30:25;;;;;;;23.67;22.07;;;;;;;10.67;96.09;98435.56;5075338;28;20056;-68
2022/12/15 02:33:13;;;;;;;22.40;21.03;;;;;;;10.76;96.41;98468.22;5075449;28;20406;-68
2022/12/15 02:36:05;;;;;;;21.80;20.40;;;;;;;10.67;96.17;98460.69;5075375;28;20052;-69
2022/12/15 02:38:36;;;;;;;22.03;20.60;;;;;;;10.71;96.60;98463.66;5057665;28;20506;-68
2022/12/15 02:41:05;;;;;;;22.63;20.97;;;;;;;10.71;96.73;98457.25;5063750;28;20510;-69
2022/12/15 02:43:35;;;;;;;24.03;22.13;;;;;;;10.70;97.05;98441.63;5075198;28;20044;-68
2022/12/15 02:46:05;;;;;;;23.47;21.67;;;;;;;10.84;96.99;98461.81;5075299;28;20070;-68
2022/12/15 02:48:47;;;;;;;24.05;22.08;;;;;;;10.91;96.89;98448.16;5075215;28;20052;-68
2022/12/15 02:51:37;;;;;;;25.67;23.60;;;;;;;10.99;97.06;98452.06;5074706;28;20055;-68
2022/12/15 02:54:33;;;;;;;24.02;21.75;;;;;;;11.08;96.90;98456.47;5074075;28;20044;-68
2022/12/15 02:57:26;;;;;;;24.93;22.50;;;;;;;11.22;96.98;98458.22;5003470;28;20054;-68
2022/12/15 02:59:59;;;;;;;23.33;21.33;;;;;;;11.27;96.67;98453.22;5074563;28;20055;-68
2022/12/15 03:02:29;;;;;;;24.73;22.40;;;;;;;11.43;96.98;98449.88;5074982;28;20055;-69
2022/12/15 03:04:56;;;;;;;;;;;;;;;11.28;97.58;98452.09;5057843;28;20441;-73
2022/12/15 03:07:26;;;;;;;24.33;22.30;;;;;;;11.53;97.46;98458.69;5054441;28;20379;-73
2022/12/15 03:09:56;;;;;;;24.25;21.83;;;;;;;11.60;97.08;98456.19;5054636;28;20045;-72
2022/12/15 03:12:23;;;;;;;24.88;22.52;;;;;;;11.69;96.64;98458.94;5057098;28;20044;-67
2022/12/15 03:14:50;;;;;;;36.17;34.07;;;;;;;11.65;95.66;98462.72;5072484;28;20056;-67
2022/12/15 03:17:16;;;;;;;21.60;20.20;;;;;;;11.51;95.60;98463.78;5073286;28;20445;-67
2022/12/15 03:19:43;;;;;;;22.13;20.83;;;;;;;11.30;95.79;98444.19;5073988;28;20044;-64
2022/12/15 03:22:10;;;;;;;22.42;20.73;;;;;;;11.31;95.96;98459.78;5073565;28;20053;-65
2022/12/15 03:24:37;;;;;;;23.77;22.07;;;;;;;11.31;96.00;98453.38;5073292;28;20045;-65
2022/12/15 03:27:04;;;;;;;22.60;21.03;;;;;;;11.28;96.02;98449.31;5073619;28;20496;-65
2022/12/15 03:29:31;;;;;;;22.73;21.33;;;;;;;11.23;96.00;98446.69;5073793;28;20048;-64
2022/12/15 03:31:57;;;;;;;23.20;21.60;;;;;;;11.24;96.14;98450.28;5066662;28;20488;-68
2022/12/15 03:34:25;;;;;;;21.47;20.17;;;;;;;11.19;96.11;98450.50;5071254;28;20084;-69
2022/12/15 03:36:52;;;;;;;22.50;20.97;;;;;;;11.11;96.17;98441.81;5073204;28;20051;-69
2022/12/15 03:39:19;;;;;;;22.90;21.30;;;;;;;11.16;96.20;98449.19;5065557;28;20045;-69
2022/12/15 03:41:45;;;;;;;21.43;20.03;;;;;;;11.10;96.22;98456.09;5072177;28;20057;-69
2022/12/15 03:44:12;;;;;;;22.07;20.67;;;;;;;11.10;96.46;98454.13;5072236;28;20052;-69
2022/12/15 03:46:39;;;;;;;26.47;23.40;;;;;;;11.11;96.76;98461.38;5054068;28;20052;-68
2022/12/15 03:49:06;;;;;;;25.17;22.77;;;;;;;11.11;96.58;98466.97;5072024;28;20059;-68
2022/12/15 03:51:33;;;;;;;26.20;24.10;;;;;;;11.01;96.74;98456.16;5070992;28;20060;-68
2022/12/15 03:54:00;;;;;;;29.20;26.90;;;;;;;10.83;96.96;98447.00;5072725;28;20044;-67
2022/12/15 03:56:27;;;;;;;27.70;25.10;;;;;;;10.86;97.36;98451.13;5072715;28;20055;-66
2022/12/15 03:58:53;;;;;;;27.57;25.67;;;;;;;10.94;97.96;98461.44;5054189;28;20060;-65
2022/12/15 04:01:20;;;;;;;28.43;25.60;;;;;;;10.98;98.15;98462.41;5071012;28;20063;-65
2022/12/15 04:03:47;;;;;;;26.73;24.57;;;;;;;11.00;98.27;98462.88;5077751;28;20098;-65
2022/12/15 04:06:14;;;;;;;26.30;23.80;;;;;;;11.00;98.14;98457.28;5059356;28;20063;-65
2022/12/15 04:08:41;;;;;;;36.67;33.80;;;;;;;11.00;98.33;98456.47;5068624;28;20510;-65
2022/12/15 04:11:08;;;;;;;26.47;24.20;;;;;;;10.97;97.89;98460.75;5068537;28;20045;-65
2022/12/15 04:13:34;;;;;;;25.33;23.20;;;;;;;10.89;97.95;98456.03;5072930;28;20045;-65
2022/12/15 04:16:02;;;;;;;25.77;23.87;;;;;;;10.86;98.15;98451.94;5072689;28;20044;-65
2022/12/15 04:18:29;;;;;;;25.83;24.03;;;;;;;10.80;98.42;98453.28;5055059;28;20082;-66
2022/12/15 04:20:56;;;;;;;25.97;23.73;;;;;;;10.87;98.06;98461.13;5072416;28;20048;-66
2022/12/15 04:23:23;;;;;;;26.57;24.40;;;;;;;10.90;98.12;98466.03;5061451;28;20427;-66
2022/12/15 05:32:23;;;;;;;27.43;24.70;;;;;;;11.08;97.36;98434.13;5073526;28;20057;-85
2022/12/15 05:34:50;;;;;;;24.47;22.50;;;;;;;11.24;97.27;98447.50;5074137;28;20404;-84
2022/12/15 05:37:16;;;;;;;48.70;45.70;;;;;;;11.31;97.18;98445.00;5073942;28;20056;-85
2022/12/15 05:39:43;;;;;;;27.00;24.43;;;;;;;11.38;97.01;98446.13;5076053;28;20053;-64
2022/12/15 05:42:10;;;;;;;25.90;23.73;;;;;;;11.37;96.82;98429.69;5076371;28;20049;-64
2022/12/15 05:44:37;;;;;;;25.17;23.20;;;;;;;11.44;96.56;98441.13;5056725;28;20149;-63
2022/12/15 05:47:04;;;;;;;23.50;21.77;;;;;;;11.44;96.24;98449.53;5061983;28;20059;-64
2022/12/15 05:49:30;;;;;;;24.20;21.87;;;;;;;11.40;96.00;98451.38;5076083;28;20048;-64
2022/12/15 05:51:57;;;;;;;24.83;22.30;;;;;;;11.42;95.99;98454.66;5058130;28;20049;-62
2022/12/15 05:54:25;;;;;;;25.73;23.90;;;;;;;11.42;95.94;98442.63;5075692;28;20040;-63
2022/12/15 05:56:52;;;;;;;25.17;22.97;;;;;;;11.44;95.87;98452.31;5075782;28;20080;-63
2022/12/15 05:59:18;;;;;;;25.50;23.27;;;;;;;11.45;95.80;98442.78;5058341;28;20060;-64
2022/12/15 06:01:46;;;;;;;23.57;21.87;;;;;;;11.44;95.67;98445.91;5055971;28;20053;-64
2022/12/15 06:04:13;;;;;;;23.77;22.17;;;;;;;11.43;95.77;98452.66;5057613;28;20106;-64
2022/12/15 06:06:40;;;;;;;24.00;22.30;;;;;;;11.45;95.80;98455.94;5075624;28;20040;-64
2022/12/15 06:09:08;;;;;;;27.07;24.80;;;;;;;11.49;95.65;98454.13;5075823;28;20411;-65
2022/12/15 06:11:36;;;;;;;26.13;23.80;;;;;;;11.57;95.91;98456.84;5075541;28;20049;-64
2022/12/15 06:14:03;;;;;;;26.87;24.57;;;;;;;11.61;95.80;98466.19;5049302;28;20080;-63
2022/12/15 06:16:30;;;;;;;26.17;24.10;;;;;;;11.70;95.57;98459.75;5057082;28;20392;-64
2022/12/15 06:19:00;;;;;;;28.43;25.40;;;;;;;11.76;95.65;98463.94;5075453;28;20102;-64
2022/12/15 06:21:30;;;;;;;26.00;23.65;;;;;;;11.81;95.70;98459.00;5075347;28;20422;-64
2022/12/15 06:23:57;;;;;;;25.63;23.38;;;;;;;11.89;95.93;98462.09;5065813;28;20052;-64
2022/12/15 06:26:35;;;;;;;23.90;22.07;;;;;;;11.87;95.00;98464.44;5055724;28;20044;-64
2022/12/15 06:29:04;;;;;;;24.20;22.70;;;;;;;11.75;94.63;98471.53;5062781;28;20060;-64
2022/12/15 06:31:32;;;;;;;25.17;23.57;;;;;;;11.59;94.59;98465.72;5074374;28;20056;-64
2022/12/15 06:34:06;;;;;;;24.20;22.70;;;;;;;11.42;94.69;98465.84;5063624;28;20051;-65
2022/12/15 06:36:33;;;;;;;26.17;24.27;;;;;;;11.39;95.13;98460.91;5054957;28;20506;-64
2022/12/15 06:39:03;;;;;;;24.40;22.70;;;;;;;11.36;95.22;98461.59;5074707;28;20048;-64
2022/12/15 06:41:30;;;;;;;24.95;23.05;;;;;;;11.33;95.45;98467.84;5074730;28;20058;-80
2022/12/15 06:43:58;;;;;;;23.13;21.43;;;;;;;11.32;95.60;98464.22;5075043;28;20063;-62
2022/12/15 06:46:27;;;;;;;25.03;22.77;;;;;;;11.39;95.71;98467.31;5068578;28;20098;-63
2022/12/15 06:48:54;;;;;;;26.23;23.80;;;;;;;11.53;96.04;98469.06;5056985;28;20120;-62
2022/12/15 06:51:21;;;;;;;24.73;22.73;;;;;;;11.70;95.84;98487.69;5066076;28;20052;-62
2022/12/15 06:53:51;;;;;;;25.40;23.05;;;;;;;11.76;95.42;98492.75;5046520;28;20048;-63
2022/12/15 06:56:27;;;;;;;30.30;26.15;;;;;;;11.80;95.43;98490.09;5073480;28;20051;-63
2022/12/15 06:59:01;;;;;;;25.00;23.00;;;;;;;11.86;95.15;98497.16;5069700;28;20400;-63
2022/12/15 07:01:28;;;;;;;25.37;23.10;;;;;;;11.85;95.36;98490.75;5069809;28;20056;-63
2022/12/15 07:03:55;;;;;;;26.80;24.00;;;;;;;11.89;95.31;98495.66;5074748;28;20044;-63
2022/12/15 07:06:22;;;;;;;34.27;31.37;;;;;;;11.85;95.31;98498.31;5072816;28;20049;-63
2022/12/15 07:08:52;;;;;;;26.73;24.47;;;;;;;11.77;95.06;98497.19;5069492;28;20144;-62
2022/12/15 07:11:20;;;;;;;53.97;50.47;;;;;;;11.72;95.33;98502.97;5068649;28;20059;-62
2022/12/15 07:13:51;;;;;;;24.53;22.73;;;;;;;11.66;95.30;98509.94;5071750;28;20041;-62
2022/12/15 07:16:20;;;;;;;48.87;45.77;;;;;;;11.68;95.42;98503.97;5067302;28;20044;-63
2022/12/15 07:18:47;;;;;;;39.63;37.03;;;;;;;11.69;95.68;98500.03;5070267;28;20499;-62
2022/12/15 07:21:14;;;;;;;47.73;44.43;;;;;;;11.72;95.52;98508.56;5067095;28;20055;-64
2022/12/15 07:23:41;;;;;;;39.37;35.57;;;;;;;11.74;95.68;98505.44;5067891;28;20049;-62
2022/12/15 07:26:25;;;;;;;27.20;25.10;;;;;;;11.69;95.52;98502.81;5068709;28;20052;-62
2022/12/15 07:28:52;;;;;;;27.23;25.17;;;;;;;11.63;95.53;98508.63;5070920;28;20048;-62
2022/12/15 07:31:20;;;;;;;26.03;24.17;;;;;;;11.48;95.30;98514.78;5071255;28;20049;-62
2022/12/15 07:33:48;;;;;;;32.23;29.73;;;;;;;11.43;95.79;98517.75;5071001;28;20049;-62
2022/12/15 07:36:15;;;;;;;28.27;25.93;;;;;;;11.38;95.95;98513.19;5071251;28;20048;-62
2022/12/15 07:38:44;;;;;;;29.47;26.50;;;;;;;11.40;95.96;98512.84;5068551;28;20415;-62
2022/12/15 07:41:17;;;;;;;29.33;26.40;;;;;;;11.40;95.96;98518.44;5071387;28;20052;-62
2022/12/15 07:43:45;;;;;;;31.47;28.87;;;;;;;11.39;95.99;98522.41;5052261;28;20111;-62
2022/12/15 07:46:12;;;;;;;26.33;24.63;;;;;;;11.34;96.06;98525.38;5066570;28;20376;-63
2022/12/15 07:48:39;;;;;;;50.07;46.93;;;;;;;11.28;95.88;98526.69;5068956;28;20044;-62
2022/12/15 07:51:08;;;;;;;46.00;42.90;;;;;;;11.29;95.78;98522.75;5071216;28;20053;-62
2022/12/15 07:53:42;;;;;;;28.57;25.70;;;;;;;11.24;96.01;98536.91;5069459;28;20056;-62
2022/12/15 07:56:09;;;;;;;26.77;25.00;;;;;;;11.24;96.34;98534.09;5067080;28;20491;-63
2022/12/15 07:58:37;;;;;;;26.67;24.97;;;;;;;11.24;96.23;98534.09;5069330;28;20056;-62
2022/12/15 08:01:06;;;;;;;27.60;25.13;;;;;;;11.25;96.35;98530.19;5061515;28;20161;-62
2022/12/15 08:03:33;;;;;;;24.90;23.23;;;;;;;11.20;96.40;98530.34;5057165;28;20048;-63
2022/12/15 08:06:05;;;;;;;28.17;25.90;;;;;;;11.23;96.35;98540.88;5072223;28;20755;-62
2022/12/15 08:08:33;;;;;;;28.67;26.57;;;;;;;11.21;96.21;98543.97;5071741;28;20506;-62
2022/12/15 08:11:09;;;;;;;33.07;30.93;;;;;;;11.22;96.41;98544.81;5070115;28;20052;-61
2022/12/15 08:13:38;;;;;;;31.17;29.33;;;;;;;11.17;96.44;98545.81;5072150;28;20048;-63
2022/12/15 08:16:25;;;;;;;43.43;40.97;;;;;;;11.10;96.48;98563.06;5056962;28;20106;-61
2022/12/15 08:18:52;;;;;;;51.00;47.70;;;;;;;11.02;96.52;98544.38;5071921;28;20058;-63
2022/12/15 08:21:19;;;;;;;30.13;27.73;;;;;;;11.18;96.48;98566.16;5072415;28;20238;-62
2022/12/15 08:23:46;;;;;;;29.90;27.13;;;;;;;11.24;96.59;98565.66;5074188;28;20110;-62
2022/12/15 08:26:15;;;;;;;28.77;26.13;;;;;;;11.31;96.47;98565.97;5075100;28;20535;-63
2022/12/15 08:28:43;;;;;;;42.33;39.03;;;;;;;11.30;96.27;98563.50;5073375;28;20052;-62
2022/12/15 08:31:12;;;;;;;36.20;32.63;;;;;;;11.45;96.13;98576.13;5068397;28;20073;-62
2022/12/15 08:33:40;;;;;;;30.98;27.83;;;;;;;11.44;95.75;98564.13;5056971;28;20059;-63
2022/12/15 08:36:09;;;;;;;27.07;24.57;;;;;;;11.48;95.52;98569.84;5058963;28;20044;-61
2022/12/15 08:38:38;;;;;;;28.23;25.33;;;;;;;11.46;95.16;98577.78;5070522;28;20053;-63
2022/12/15 08:41:07;;;;;;;46.17;43.37;;;;;;;11.47;95.39;98571.84;5071581;28;20506;-62
2022/12/15 08:43:35;;;;;;;29.65;27.25;;;;;;;11.42;95.19;98582.38;5055175;28;20049;-62
2022/12/15 08:46:02;;;;;;;26.17;24.43;;;;;;;11.36;95.32;98584.53;5064287;28;20518;-62
2022/12/15 08:48:29;;;;;;;27.00;25.17;;;;;;;11.41;95.78;98594.72;5065366;28;20063;-63
2022/12/15 08:50:57;;;;;;;31.33;28.80;;;;;;;11.21;95.68;98593.44;5057832;28;20044;-62
2022/12/15 08:53:25;;;;;;;51.27;47.97;;;;;;;11.01;96.34;98601.41;5064376;28;20063;-62
2022/12/15 08:56:02;;;;;;;36.00;32.90;;;;;;;11.03;97.58;98603.84;5059889;28;20082;-62
2022/12/15 08:58:29;;;;;;;39.70;36.80;;;;;;;11.17;98.38;98604.47;5061114;28;20048;-62
2022/12/15 09:01:17;;;;;;;39.33;36.43;;;;;;;11.24;98.77;98599.19;5064429;28;20052;-62
2022/12/15 09:03:50;;;;;;;37.27;34.37;;;;;;;11.30;99.47;98619.41;5059358;28;20500;-63
2022/12/15 09:06:19;;;;;;;41.23;37.93;;;;;;;11.67;100.00;98623.41;5046984;28;20041;-62
2022/12/15 09:08:48;;;;;;;41.55;37.88;;;;;;;11.77;100.00;98633.41;5066006;28;20053;-61
2022/12/15 09:11:16;;;;;;;40.88;37.45;;;;;;;11.69;100.00;98626.69;5053578;28;20102;-62
2022/12/15 09:13:43;;;;;;;38.30;35.23;;;;;;;11.52;99.79;98632.31;5066694;28;20110;-62
2022/12/15 09:16:13;;;;;;;35.30;32.70;;;;;;;11.41;99.91;98629.06;5062233;28;20410;-62
2022/12/15 09:18:48;;;;;;;39.47;35.80;;;;;;;11.56;99.83;98633.31;5045186;28;20419;-62
2022/12/15 09:21:16;;;;;;;35.13;32.13;;;;;;;11.71;100.00;98624.38;5065201;28;20048;-62
2022/12/15 09:23:47;;;;;;;35.90;33.27;;;;;;;12.05;100.00;98629.00;5071851;28;20118;-62
2022/12/15 09:26:14;;;;;;;36.38;33.88;;;;;;;12.32;99.93;98615.69;5068018;28;20040;-63
2022/12/15 09:28:42;;;;;;;38.95;35.97;;;;;;;12.72;99.36;98629.22;5070997;28;20052;-62
2022/12/15 09:31:20;;;;;;;62.33;59.00;;;;;;;12.70;98.59;98632.34;5069906;28;20447;-62
2022/12/15 09:33:50;;;;;;;30.80;28.60;;;;;;;12.30;97.67;98645.97;5065739;28;20053;-63
2022/12/15 09:36:16;;;;;;;30.55;28.63;;;;;;;12.12;98.10;98644.44;5069316;28;20045;-62
2022/12/15 09:38:44;;;;;;;45.22;41.83;;;;;;;12.04;98.11;98646.13;5070595;28;20044;-63
2022/12/15 09:41:16;;;;;;;33.45;30.65;;;;;;;12.02;98.10;98646.47;5067850;28;20048;-62
2022/12/15 09:43:52;;;;;;;54.17;50.60;;;;;;;12.02;98.24;98651.25;5069231;28;20040;-63
2022/12/15 09:46:22;;;;;;;58.20;55.00;;;;;;;11.97;98.52;98671.84;5080058;28;20054;-62
2022/12/15 09:48:50;;;;;;;;;;;;;;;11.44;98.30;98664.72;5060487;28;20083;-62
2022/12/15 09:51:18;;;;;;;33.40;31.20;;;;;;;11.48;99.59;98665.72;5072492;28;19920;-62
2022/12/15 09:53:46;;;;;;;37.20;34.00;;;;;;;11.50;99.65;98677.38;5066869;28;20045;-62
2022/12/15 09:56:38;;;;;;;36.50;32.77;;;;;;;11.42;99.85;98667.06;5072692;28;20051;-63
2022/12/15 09:59:40;;;;;;;36.33;33.27;;;;;;;11.55;100.00;98671.59;5071474;28;20419;-62
2022/12/15 10:02:25;;;;;;;59.23;55.77;;;;;;;12.07;100.00;98674.25;5072506;28;20435;-61
2022/12/15 10:05:01;;;;;;;34.00;31.13;;;;;;;13.28;100.00;98678.19;5076608;28;20087;-62
2022/12/15 10:07:40;;;;;;;30.45;27.95;;;;;;;14.10;100.00;98665.41;5062753;28;20048;-61
2022/12/15 10:10:28;;;;;;;47.58;43.70;;;;;;;14.23;99.86;98681.09;5071910;28;20131;-61
2022/12/15 10:13:01;;;;;;;49.75;46.38;;;;;;;14.29;99.27;98688.13;5072415;28;20068;-61
2022/12/15 10:15:39;;;;;;;28.98;26.00;;;;;;;13.93;97.98;98684.09;5076054;28;20127;-62
2022/12/15 10:18:23;;;;;;;29.75;26.95;;;;;;;13.73;96.79;98685.00;5069071;28;20052;-62
2022/12/15 10:20:54;;;;;;;29.23;26.60;;;;;;;13.90;97.01;98692.41;5071385;28;20059;-61
2022/12/15 10:23:21;;;;;;;29.90;26.75;;;;;;;14.09;96.43;98691.84;5083317;28;20447;-62
2022/12/15 10:26:13;;;;;;;35.78;32.78;;;;;;;14.28;95.48;98683.66;5089835;28;20078;-62
2022/12/15 10:28:51;;;;;;;53.00;49.88;;;;;;;15.03;95.86;98696.47;5091594;27;20056;-62
2022/12/15 10:31:28;;;;;;;27.63;25.05;;;;;;;15.10;93.52;98688.25;5087457;28;20044;-61
2022/12/15 10:34:08;;;;;;;28.33;25.92;;;;;;;15.05;92.84;98689.31;5097382;28;20495;-62
2022/12/15 10:36:34;;;;;;;26.58;24.30;;;;;;;15.24;93.28;98696.28;5087486;28;20380;-62
2022/12/15 10:39:01;;;;;;;26.02;23.80;;;;;;;15.05;91.70;98700.56;5095349;28;20051;-62
2022/12/15 10:41:32;;;;;;;27.48;24.23;;;;;;;14.85;92.21;98707.19;5101521;28;20059;-62
2022/12/15 10:44:01;;;;;;;27.25;25.65;;;;;;;15.07;93.74;98711.44;5099907;28;20040;-62
2022/12/15 10:46:29;;;;;;;28.45;25.58;;;;;;;15.85;94.04;98707.28;5103216;27;20052;-63
2022/12/15 10:48:59;;;;;;;26.50;24.42;;;;;;;16.65;94.54;98708.94;5092360;28;20085;-62
2022/12/15 10:51:33;;;;;;;27.50;25.20;;;;;;;17.03;92.39;98715.88;5092768;28;20520;-62
2022/12/15 10:54:08;;;;;;;26.88;24.55;;;;;;;17.66;95.10;98700.66;5094103;28;20052;-61
2022/12/15 10:56:57;;;;;;;26.73;24.58;;;;;;;18.06;91.02;98683.31;5090355;28;20063;-62
2022/12/15 10:59:31;;;;;;;26.87;24.30;;;;;;;18.00;91.83;98693.28;5092299;28;20056;-62
2022/12/15 11:02:20;;;;;;;25.23;23.40;;;;;;;17.28;88.20;98708.75;5086754;28;20066;-62
2022/12/15 11:05:14;;;;;;;26.52;24.42;;;;;;;16.27;84.83;98706.75;5088433;28;20462;-61
2022/12/15 11:07:51;;;;;;;25.23;23.35;;;;;;;15.59;87.51;98710.56;5091332;28;20052;-62
2022/12/15 11:13:21;;;;;;;26.02;23.85;;;;;;;15.70;89.22;98702.47;5062363;28;20048;-62
2022/12/15 11:15:50;;;;;;;25.63;23.83;;;;;;;16.32;91.41;98701.69;5089376;28;20358;-61
2022/12/15 11:18:50;;;;;;;24.50;22.77;;;;;;;16.95;92.89;98708.44;5094095;28;20067;-62
2022/12/15 11:21:25;;;;;;;24.23;22.58;;;;;;;16.66;88.79;98710.56;5086016;28;20040;-60
2022/12/15 11:23:56;;;;;;;27.73;25.77;;;;;;;16.31;90.12;98708.50;5072207;28;20071;-62
2022/12/15 11:26:45;;;;;;;33.58;31.48;;;;;;;15.93;89.13;98705.47;5051501;28;20557;-61
2022/12/15 11:29:20;;;;;;;25.60;23.85;;;;;;;16.19;92.81;98702.94;5069666;28;20056;-62
2022/12/15 11:31:47;;;;;;;25.17;23.30;;;;;;;16.88;92.72;98702.63;5066482;28;20045;-62
2022/12/15 11:34:20;;;;;;;27.63;25.48;;;;;;;17.10;91.86;98699.13;5070475;28;20491;-61
2022/12/15 11:37:26;;;;;;;25.30;23.45;;;;;;;17.68;92.79;98698.28;5069361;28;20048;-62
2022/12/15 11:40:18;;;;;;;25.13;22.95;;;;;;;19.29;97.59;98667.84;5066785;28;20067;-62
2022/12/15 11:42:51;;;;;;;26.17;24.20;;;;;;;19.08;91.35;98676.88;5048168;28;20124;-62
2022/12/15 11:45:40;;;;;;;24.25;22.55;;;;;;;18.74;90.82;98678.00;5066663;28;20040;-62
2022/12/15 11:48:18;;;;;;;24.52;22.73;;;;;;;18.14;87.27;98690.69;5066445;28;20054;-62
2022/12/15 11:50:48;;;;;;;25.40;23.45;;;;;;;17.09;85.58;98697.47;5069459;28;20135;-62
2022/12/15 11:53:47;;;;;;;24.67;22.33;;;;;;;16.25;85.15;98690.25;5051009;28;20130;-62
2022/12/15 11:56:30;;;;;;;25.42;23.05;;;;;;;15.32;85.76;98701.78;5070340;28;20123;-61
2022/12/15 11:59:34;;;;;;;24.92;22.90;;;;;;;14.51;85.94;98686.03;5064282;28;20400;-62
2022/12/15 12:02:06;;;;;;;25.52;23.52;;;;;;;13.97;87.55;98684.22;5067370;28;20048;-61
2022/12/15 12:04:54;;;;;;;25.25;23.08;;;;;;;13.73;88.38;98685.00;5069759;28;20078;-62
2022/12/15 12:07:47;;;;;;;24.88;22.75;;;;;;;13.53;89.17;98681.09;5069474;28;20067;-62
2022/12/15 12:10:32;;;;;;;27.17;24.63;;;;;;;13.72;91.56;98683.38;5067517;28;20048;-61
2022/12/15 12:13:17;;;;;;;24.52;22.77;;;;;;;15.17;98.09;98685.66;5046686;28;20057;-61
2022/12/15 12:16:08;;;;;;;23.67;21.67;;;;;;;16.27;96.70;98687.88;5066795;28;20045;-61
2022/12/15 12:18:45;;;;;;;24.30;22.45;;;;;;;16.02;93.54;98681.59;5064809;28;20045;-62
2022/12/15 12:21:25;;;;;;;22.98;21.20;;;;;;;15.65;93.18;98678.97;5063943;28;20059;-63
2022/12/15 12:24:02;;;;;;;23.30;21.25;;;;;;;15.37;91.65;98675.38;5061078;28;20056;-61
2022/12/15 12:26:54;;;;;;;33.58;31.55;;;;;;;15.05;90.31;98680.06;5068396;28;20044;-61
2022/12/15 12:29:34;;;;;;;26.08;23.52;;;;;;;14.85;90.43;98685.50;5039397;28;20502;-61
2022/12/15 12:32:22;;;;;;;24.60;22.45;;;;;;;14.66;89.66;98700.16;5067966;28;20071;-62
2022/12/15 12:35:15;;;;;;;26.30;24.17;;;;;;;14.26;89.71;98691.63;5044565;28;20055;-62
2022/12/15 12:38:03;;;;;;;28.63;25.90;;;;;;;13.84;90.73;98693.78;5066635;28;20056;-62
2022/12/15 12:40:39;;;;;;;29.00;25.95;;;;;;;13.66;91.71;98687.56;5051970;28;20132;-61
2022/12/15 12:43:08;;;;;;;27.25;24.83;;;;;;;13.56;92.19;98686.00;5070160;28;20052;-62
2022/12/15 12:45:51;;;;;;;28.70;26.10;;;;;;;13.37;92.35;98694.94;5057722;28;20040;-62
2022/12/15 12:48:47;;;;;;;28.65;25.60;;;;;;;13.27;92.72;98712.19;5061682;28;20049;-62
2022/12/15 12:51:32;;;;;;;25.80;23.90;;;;;;;13.10;93.09;98703.91;5072933;28;20604;-61
2022/12/15 12:54:00;;;;;;;26.00;24.02;;;;;;;12.95;92.62;98706.13;5053154;28;20416;-63
2022/12/15 12:56:43;;;;;;;27.10;24.77;;;;;;;12.58;91.10;98688.31;5063250;28;20055;-62
2022/12/15 12:59:29;;;;;;;26.38;24.48;;;;;;;12.11;90.28;98681.97;5060825;28;20056;-62
2022/12/15 13:02:14;;;;;;;25.55;23.65;;;;;;;11.56;91.19;98680.84;5064341;28;20059;-60
2022/12/15 13:04:47;;;;;;;25.20;23.10;;;;;;;11.47;92.95;98680.84;5068721;28;20418;-62
2022/12/15 13:07:36;;;;;;;25.50;23.53;;;;;;;11.37;93.73;98670.81;5062212;28;20044;-62
2022/12/15 13:10:17;;;;;;;31.37;28.87;;;;;;;11.75;95.19;98672.88;5063719;28;20044;-62
2022/12/15 13:12:58;;;;;;;28.50;26.33;;;;;;;12.59;97.11;98677.94;5064726;28;20048;-62
2022/12/15 13:15:30;;;;;;;27.63;25.83;;;;;;;14.48;99.82;98678.28;5069228;28;20491;-62
2022/12/15 13:17:59;;;;;;;23.85;21.98;;;;;;;15.88;96.79;98670.78;5069480;28;20052;-62
2022/12/15 13:20:32;;;;;;;23.15;21.52;;;;;;;16.57;95.17;98662.03;5068322;28;20396;-62
2022/12/15 13:23:20;;;;;;;23.67;21.85;;;;;;;16.46;93.38;98660.97;5069538;28;20082;-62
2022/12/15 13:25:56;;;;;;;23.23;21.55;;;;;;;15.83;90.22;98657.00;5065817;28;20483;-62
2022/12/15 13:28:48;;;;;;;23.95;22.27;;;;;;;15.30;89.25;98652.69;5067184;28;20102;-61
2022/12/15 13:31:16;;;;;;;24.35;22.40;;;;;;;14.95;89.17;98656.09;5050754;28;20048;-61
2022/12/15 13:33:51;;;;;;;25.35;23.10;;;;;;;14.82;90.21;98654.50;5069480;28;20045;-62
2022/12/15 13:36:36;;;;;;;24.00;21.88;;;;;;;14.71;90.79;98651.34;5068886;28;20052;-61
2022/12/15 13:39:16;;;;;;;25.02;22.60;;;;;;;14.84;91.33;98654.97;5069221;28;20474;-62
2022/12/15 13:42:03;;;;;;;26.45;23.88;;;;;;;14.89;91.75;98657.50;5069414;28;20131;-62
2022/12/15 13:44:56;;;;;;;40.95;38.42;;;;;;;14.87;91.94;98654.22;5069733;28;20056;-62
2022/12/15 13:47:28;;;;;;;26.35;24.05;;;;;;;15.18;93.60;98653.56;5066594;28;20131;-62
2022/12/15 13:50:11;;;;;;;45.90;43.10;;;;;;;15.28;93.21;98647.44;5054186;28;20051;-62
2022/12/15 13:52:46;;;;;;;25.95;23.23;;;;;;;15.41;93.70;98645.34;5066181;28;20473;-62
2022/12/15 13:55:38;;;;;;;25.98;23.67;;;;;;;15.44;93.66;98652.25;5067726;28;20419;-62
2022/12/15 13:58:14;;;;;;;26.50;23.92;;;;;;;15.50;92.76;98653.66;5070348;28;20055;-63
2022/12/15 14:00:56;;;;;;;25.55;23.50;;;;;;;15.75;92.96;98649.53;5070688;28;20513;-61
2022/12/15 14:03:24;;;;;;;49.67;46.67;;;;;;;15.87;91.17;98651.47;5066406;28;20056;-63
2022/12/15 14:05:57;;;;;;;28.42;25.80;;;;;;;15.88;89.89;98656.72;5067341;28;20045;-62